Dunlap, Iowa
Current Conditions -  °F | °C
As of 5:15 PM on Sunday 21 Dec 2014 (Local Time) from KDNS Reporting Station
Haze Haze  
Wind Chill: 30°   Ceiling: 600
Heat Index: 39°   Visibility: 6mi
Dew Point: 39°   Wind: 16mph
Humidity: 100%   Direction: 190°S
Pressure: 29.69"   Gusts: 22mph
Location:  41.85°N, 95.6°W
Report Text: KDNS 212315Z AUTO 19014G19KT 6SM BR OVC006 04/04 A2969 RMK AO2
Loading
Personal Weather Stations






























Interactive Weather Map New forecast layout! Learn more

10-Day Weather Forecast

Advertisements
Track Severe Weather on mobile